Flight Track Log - Related Links

Times and Time Zones

All times are in EDT time to prevent confusion due to time zone crossing. See the EJA922 flight status page for this flight to view local times or setup timezone preferences in your user account.

Time Position Orientation Groundspeed Altitude Reporting Facility
EDT Latitude Longitude Course Direction KTS MPH feet Rate Location/Type
Tue 07:03:16 PM 38.2000 -78.4167 25° Northeast 240 276 4,100  Level Potomac TRACON
Tue 07:04:43 PM 38.1953 -78.2839 93° East 282 325 8,000 2,000 Climbing Washington Center
Tue 07:05:43 PM 38.1786 -78.1831 102° East 282 325 9,000 850 Climbing Washington Center
Tue 07:06:43 PM 38.1642 -78.0822 100° East 282 325 9,700 496 Climbing Washington Center
Tue 07:07:44 PM 38.1475 -77.9733 101° East 289 333 10,000 151 Climbing Washington Center
Tue 07:08:42 PM 38.1269 -77.8458 102° East 330 380 10,000 356 Level Washington Center
Tue 07:09:42 PM 38.1067 -77.7108 101° East 363 418 10,700 1,400 Climbing Washington Center
Tue 07:10:42 PM 38.0839 -77.5731 102° East 388 447 12,800 1,934 Climbing Washington Center
Tue 07:11:43 PM 38.1047 -77.4389 79° East 389 448 14,600 1,073 Climbing Washington Center
Tue 07:12:45 PM 38.1917 -77.3406 42° Northeast 361 415 15,000 202 Climbing Washington Center
Tue 07:13:42 PM 38.2828 -77.2475 39° Northeast 380 437 15,000  Level Washington Center
Tue 07:14:43 PM 38.3694 -77.1514 41° Northeast 399 459 15,000 -595 Level Washington Center
Tue 07:15:43 PM 38.4478 -77.0603 42° Northeast 414 476 13,800 -1,587 Descending Washington Center
Tue 07:16:44 PM 38.5219 -76.9664 45° Northeast 400 460 11,800 -1,438 Descending Washington Center
Tue 07:17:44 PM 38.5833 -76.8931 43° Northeast 348 400 10,900 -915 Descending Washington Center
Tue 07:18:42 PM 38.6422 -76.8222 43° Northeast 310 357 10,000 -908 Descending Washington Center
Tue 07:19:43 PM 38.7036 -76.7489 43° Northeast 290 334 9,100 -1,222 Descending Washington Center
Tue 07:21:24 PM 38.7667 -76.5833 64° Northeast 279 321 6,700 -1,161 Descending Potomac TRACON
Tue 07:22:18 PM 38.8167 -76.5333 38° Northeast 267 307 6,100 -991 Descending Potomac TRACON
Tue 07:23:19 PM 38.8833 -76.5333 360° North 238 274 4,800 -1,043 Descending Potomac TRACON
Tue 07:24:13 PM 38.9500 -76.5167 11° North 222 255 4,100 -632 Descending Potomac TRACON
Tue 07:25:13 PM 39.0000 -76.5000 15° North 176 203 3,600 -550 Descending Potomac TRACON
Tue 07:26:13 PM 39.0333 -76.5333 322° Northwest 175 201 3,000 -600 Descending Potomac TRACON
Tue 07:27:13 PM 39.0667 -76.5833 311° West 171 197 2,400 -750 Descending Potomac TRACON
Tue 07:28:13 PM 39.1000 -76.6167 322° Northwest 146 168 1,500 -800 Descending Potomac TRACON
Tue 07:29:13 PM 39.1333 -76.6333 339° North 146 168 800 -700 Descending Potomac TRACON
Tue 07:31:00 PM 39.1667 -76.6667 339° North  Level FlightAware Approximate
Tue 07:38:00 PM 39.1754 -76.6683 339° North  Level Estimated
Tue 07:39:00 PM 39.1754 -76.6683 339° North  Level Estimated
Tue 07:40:00 PM 39.1754 -76.6683 339° North  Level Estimated
Tue 07:41:00 PM 39.1754 -76.6683 339° North  Level Estimated
Tue 07:42:00 PM 39.1754 -76.6683 339° North  Level Estimated

Login

Don't have an account? Register now (free) for customized features, flight alerts, and more!